Station: Murganella Airstrip

  Atmospheric Gas Attenuation - ITU Rec 676-11   --------------- db/100km ---------------
Date Time Temp RH % AH g/m3 Dew Point Wind Direction Speed kph Gust kph Barometer mB Rainfall Since 9am 24GHz 47GHz 76GHz 122GHz 134GHz 241GHz
07 06:50 17.5 96 14.31 16.8 0 0 1013.1 0 31.6 34.5 62.1 163.9 172.9 599.1
07 06:40 17.5 95 14.16 16.7 0 0 1013.1 0 31.3 34.3 61.4 162.1 170.6 591.2
07 06:30 17.6 95 14.25 16.8 0 0 1011.5 0 31.5 34.3 61.6 162.7 171.6 594.5
07 06:20 17.5 95 14.16 16.7 0 0 1013.1 0 31.3 34.3 61.4 162.1 170.6 591.2
07 06:10 17.6 94 14.1 16.7 0 0 1013.1 0 31.2 34.1 61.0 161.1 169.5 587.3
07 06:00 17.6 95 14.25 16.8 0 0 1011.1 0 31.5 34.3 61.6 162.7 171.5 594.3
07 05:50 17.7 94 14.18 16.8 0 0 1013.1 0 31.3 34.2 61.3 161.9 170.5 590.7
07 05:40 17.7 94 14.18 16.7 0 0 1013.1 0 31.3 34.2 61.3 161.9 170.5 590.7
07 05:30 17.8 94 14.27 16.8 0 0 1010.9 0 31.5 34.3 61.5 162.5 171.3 593.7
07 05:20 17.8 94 14.27 16.8 0 0 1013.1 0 31.5 34.3 61.7 162.8 171.6 594.6
07 05:10 17.9 93 14.2 16.7 0 0 1013.1 0 31.3 34.2 61.3 161.7 170.3 590.2
07 04:50 17.9 94 14.35 16.9 0 0 1013.1 0 31.7 34.5 61.9 163.5 172.6 598.1
07 04:40 18.1 94 14.52 17.1 0 0 1013.1 0 32.0 34.7 62.6 165.2 174.7 605.4
07 04:30 18.1 94 14.52 17.1 0 0 1010.6 0 32.0 34.6 62.4 164.8 174.4 604.3
07 04:20 18.2 94 14.61 17.2 0 0 1013.1 0 32.2 34.8 62.9 166.1 175.8 609.3
07 04:10 18.1 94 14.52 17.1 0 0 1013.1 0 32.0 34.7 62.6 165.2 174.7 605.4
07 04:00 18.1 94 14.52 17.1 0 0 1010.6 0 32.0 34.6 62.4 164.8 174.4 604.3
07 03:50 18.2 94 14.61 17.3 0 0 1013.1 0 32.2 34.8 62.9 166.1 175.8 609.3
07 03:40 18.2 94 14.61 17.2 0 0 1013.1 0 32.2 34.8 62.9 166.1 175.8 609.3
07 03:30 18.4 95 14.94 17.6 0 0 1010.5 0 32.9 35.2 64.1 169.3 180.0 624.0
07 03:20 18.4 94 14.78 17.4 0 0 1013.1 0 32.6 35.0 63.5 167.7 177.9 616.7
07 03:10 18.4 94 14.78 17.4 0 0 1013.1 0 32.6 35.0 63.5 167.7 177.9 616.7
07 03:00 18.5 94 14.87 17.5 0 0 1010.7 0 32.7 35.1 63.7 168.3 178.7 619.5
07 02:50 18.7 94 15.05 17.7 0 0 1013.1 0 33.1 35.4 64.5 170.4 181.3 628.5
07 02:40 18.7 94 15.05 17.7 0 0 1013.1 0 33.1 35.4 64.5 170.4 181.3 628.5
07 02:30 18.8 94 15.14 17.8 0 0 1011 0 33.3 35.5 64.7 171.0 182.1 631.5
07 02:20 18.8 94 15.14 17.8 0 0 1013.1 0 33.3 35.5 64.9 171.3 182.4 632.4
07 02:10 18.8 94 15.14 17.8 0 0 1013.1 0 33.3 35.5 64.9 171.3 182.4 632.4
07 02:00 18.9 94 15.23 17.9 0 0 1011.3 0 33.5 35.6 65.1 171.9 183.3 635.5
07 01:50 18.9 93 15.07 17.7 0 0 1013.1 0 33.1 35.4 64.4 170.2 181.1 627.9
07 01:40 18.9 93 15.07 17.7 0 0 1013.1 0 33.1 35.4 64.4 170.2 181.1 627.9
07 01:30 19.1 93 15.24 17.9 0 0 1011.6 0 33.5 35.5 65.0 171.6 183.0 634.5
07 01:20 19 93 15.15 17.8 0 0 1013.1 0 33.3 35.5 64.7 171.0 182.1 631.3
07 01:10 19.2 93 15.33 18 0 0 1013.1 0 33.7 35.7 65.4 172.7 184.3 639.1
07 01:00 19.3 93 15.42 18.1 0 0 1011.7 0 33.9 35.8 65.6 173.4 185.3 642.4
07 00:50 19.3 93 15.42 18.1 0 0 1013.1 0 33.9 35.9 65.7 173.6 185.4 643.1
07 00:40 19.4 93 15.52 18.2 0 0 1013.1 0 34.1 36.0 66.1 174.6 186.7 647.5
07 00:30 19.5 93 15.61 18.3 0 0 1012.1 0 34.2 36.1 66.4 175.4 187.7 651.0
07 00:20 19.6 93 15.7 18.4 0 0 1013.1 0 34.4 36.3 66.8 176.4 189.0 655.4
07 00:10 19.6 92 15.53 18.2 0 0 1013.1 0 34.1 35.9 66.0 174.3 186.4 646.4
07 00:00 19.8 92 15.71 18.5 0 0 1012.3 0 34.4 36.2 66.6 176.0 188.5 653.8
06 23:50 19.9 90 15.46 18.3 0 0 1013.1 0 33.9 35.7 65.4 172.8 184.6 640.1
06 23:40 19.9 90 15.46 18.3 0 0 1013.1 0 33.9 35.7 65.4 172.8 184.6 640.1
06 23:30 20.1 92 15.99 18.8 0 0 1012.4 0 35.0 36.6 67.6 178.8 192.0 666.1
06 23:20 20.2 92 16.08 18.8 0 0 1013.1 0 35.2 36.7 68.0 179.7 193.3 670.4
06 23:10 20.3 93 16.35 19.1 0 0 1013.1 0 35.8 37.2 69.2 182.9 197.1 683.9
06 23:00 20.5 93 16.55 19.3 0 0 1012.3 0 36.2 37.4 69.9 184.8 199.6 692.5
06 22:50 20.3 92 16.18 18.9 0 0 1013.1 0 35.4 36.9 68.4 180.8 194.5 674.8
06 22:40 20.5 90 16.01 18.9 0 0 1013.1 0 35.0 36.4 67.4 178.2 191.4 664.0
06 22:30 20.6 91 16.29 19.1 0 0 1012.2 0 35.6 36.9 68.6 181.3 195.3 677.6
06 22:20 20.7 89 16.02 18.8 0 0 1013.1 0 35.0 36.4 67.3 177.8 191.1 662.8
06 22:10 20.9 90 16.39 19.2 0 0 1013.1 0 35.8 37.0 68.8 181.9 196.2 680.6
06 22:00 21 89 16.3 19.1 0 0 1011.9 0 35.6 36.7 68.3 180.4 194.4 674.4
06 21:50 21.3 89 16.59 19.4 0 0 1013.1 0 36.2 37.2 69.4 183.5 198.2 687.7
06 21:40 21.4 89 16.68 19.5 0 0 1013.1 0 36.4 37.3 69.7 184.3 199.3 691.6
06 21:30 21.6 88 16.69 19.5 0 0 1011.6 0 36.4 37.2 69.5 183.8 198.7 689.5
06 21:20 21.8 88 16.88 19.7 0 0 1013.1 0 36.8 37.5 70.3 185.9 201.3 698.5
06 21:10 22 87 16.88 19.7 0 0 1013.1 0 36.7 37.4 70.1 185.4 200.7 696.7
06 21:00 22.2 86 16.88 19.7 0 0 1011.1 0 36.7 37.2 69.8 184.6 199.9 693.9
06 20:50 22.5 84 16.78 19.6 0 0 1013.1 0 36.5 37.0 69.2 182.9 197.9 686.8
06 20:40 22.6 82 16.47 19.5 0 0 1013.1 0 35.8 36.4 67.7 178.9 193.0 669.7
06 20:30 23.1 81 16.74 19.7 0 0 1010.7 0 36.3 36.6 68.3 180.6 195.4 678.2
06 20:20 23.5 80 16.92 19.8 0 0 1013.1 0 36.7 36.8 68.9 182.2 197.4 685.1
06 20:10 23.8 81 17.42 20.3 0 0 1013.1 0 37.7 37.6 71.0 187.6 204.1 708.5
06 20:00 23.9 78 16.87 19.8 0 0 1010.3 0 36.6 36.5 68.2 180.3 195.2 677.6
06 19:50 24.3 77 17.04 20 0 0 1013.1 0 36.9 36.7 68.8 181.8 197.1 684.2
06 19:40 24.8 77 17.53 20.5 0 0 1013.1 0 37.9 37.4 70.5 186.5 203.0 705.0
06 19:30 25.1 75 17.36 20.4 2 4 1010 0 37.5 36.8 69.3 183.3 199.2 691.9
06 19:20 25.4 73 17.19 20.2 4 6 1013.1 0 37.1 36.5 68.5 181.0 196.4 682.0
06 19:10 25.7 71 17 20 4 4 1013.1 0 36.6 36.0 67.3 178.0 192.8 669.7
06 19:00 26 69 16.8 19.9 4 6 1009.8 0 36.2 35.4 66.0 174.5 188.8 655.5
06 18:50 26.3 68 16.83 19.9 6 7 1013.1 0 36.2 35.5 66.1 174.7 188.9 656.0
06 18:40 26.7 66 16.71 19.8 7 9 1013.1 0 35.9 35.1 65.2 172.4 186.2 646.7
06 18:30 27.1 62 16.05 19.4 6 9 1009.6 0 34.5 33.7 61.9 163.5 175.5 609.6
06 18:20 27.4 61 16.05 19.2 9 13 1013.1 0 34.5 33.7 61.8 163.3 175.3 608.8
06 18:10 27.8 60 16.14 19.3 6 7 1013.1 0 34.7 33.7 61.9 163.5 175.6 610.0
06 18:00 28.3 57 15.76 19.2 7 13 1009.2 0 33.8 32.7 59.7 157.7 168.8 586.4
06 17:50 28.7 56 15.83 19.3 9 11 1013.1 0 33.9 32.8 59.9 158.2 169.4 588.3
06 17:40 29 55 15.8 19.3 7 13 1013.1 0 33.8 32.7 59.5 157.3 168.3 584.7
06 17:30 29.4 55 16.15 19.4 9 15 1009.1 0 34.6 32.9 60.4 159.8 171.6 596.3
06 17:20 29.4 55 16.15 19.4 11 13 1013.1 0 34.5 33.1 60.7 160.3 172.1 598.1
06 17:10 30.1 51 15.55 19.1 11 15 1013.1 0 33.2 31.8 57.7 152.4 162.7 565.1
06 17:00 30.1 52 15.86 19.2 11 17 1008.9 0 33.9 32.2 58.7 155.2 166.2 577.5
06 16:50 30.5 50 15.58 18.9 17 19 1013.1 0 33.3 31.7 57.5 152.0 162.2 563.6
06 16:40 30.8 49 15.52 19.1 13 15 1013.1 0 33.1 31.5 57.1 150.8 160.8 558.7
06 16:30 31.3 48 15.61 19 9 17 1008.8 0 33.3 31.3 56.8 150.2 160.4 557.5
06 16:20 31.4 44 14.39 18 6 7 1013.1 0 30.7 29.6 52.3 138.0 145.3 504.5
06 16:10 32.7 42 14.72 18.1 7 9 1013.1 0 31.3 29.6 52.7 139.1 146.9 510.5
06 16:00 32.7 43 15.07 18.8 6 9 1008.8 0 32.0 30.0 53.8 142.1 150.8 524.1
06 15:50 31.8 45 15.04 18.4 9 13 1013.1 0 32.0 30.4 54.5 143.9 152.7 530.4
06 15:40 32 42 14.18 17.8 6 7 1013.1 0 30.2 29.0 51.1 134.8 141.6 491.7
06 15:30 32.1 44 14.94 18.3 7 15 1008.6 0 31.8 30.0 53.7 141.8 150.3 522.3
06 15:20 31.8 42 14.03 17.6 9 11 1013.1 0 29.9 28.9 50.6 133.7 140.1 486.5
06 15:10 33.1 41 14.68 18.4 9 17 1013.1 0 31.2 29.4 52.3 138.0 145.7 506.3
06 15:00 31.9 43 14.44 17.8 9 17 1008.9 0 30.8 29.3 51.9 137.1 144.5 501.9
06 14:50 33.4 40 14.55 18.3 6 9 1013.1 0 30.9 29.1 51.6 136.2 143.6 498.8
06 14:40 33 40 14.24 17.9 13 15 1013.1 0 30.3 28.8 50.7 133.8 140.5 488.1
06 14:30 33.3 40 14.47 17.9 9 15 1009.2 0 30.8 28.9 51.1 135.1 142.4 494.6
06 14:20 32.6 40 13.95 17.6 13 17 1013.1 0 29.7 28.5 49.9 131.6 137.7 478.2
06 14:10 32.4 41 14.14 17.8 6 6 1013.1 0 30.1 28.9 50.7 133.8 140.4 487.5

Last Refresh: 07-Aug-2020 06:56:13

Most of the information presented on this site is sourced from the Bureau of Meteorology.  Copyright in all material sourced from the Bureau of Meteorology resides with the Commonwealth of Australia.